Time;durP1;ratioP1;P1;durP2;ratioP2;P2;SDS_P1;SDS_P2;PMS_P1;PMS_P2;Temp;Humidity;BMP_temperature;BMP_pressure;BME280_temperature;BME280_humidity;BME280_pressure;Samples;Min_cycle;Max_cycle;Signal;HPM_P1;HPM_P2
2022/03/09 00:01:00;;;;;;;15.63;10.93;;;-1.50;99.90;;;;;;5053266;28;20467;-66
2022/03/09 00:03:28;;;;;;;17.30;10.97;;;-1.60;99.90;;;;;;5053267;28;20960;-66
2022/03/09 00:05:55;;;;;;;17.37;12.70;;;-1.50;99.90;;;;;;5052713;28;20455;-66
2022/03/09 00:08:22;;;;;;;14.20;10.33;;;-1.60;99.90;;;;;;5052910;28;20459;-66
2022/03/09 00:10:49;;;;;;;15.93;10.73;;;-1.50;99.90;;;;;;5052953;28;21077;-67
2022/03/09 00:13:16;;;;;;;14.10;11.23;;;-1.60;99.90;;;;;;5052423;28;20475;-68
2022/03/09 00:15:43;;;;;;;16.20;10.47;;;-1.70;99.90;;;;;;5052664;28;20451;-67
2022/03/09 00:18:10;;;;;;;12.97;9.83;;;-1.70;99.90;;;;;;5052594;28;20452;-67
2022/03/09 00:20:38;;;;;;;14.70;10.63;;;-1.70;99.90;;;;;;5052820;28;20535;-67
2022/03/09 00:23:05;;;;;;;16.37;11.73;;;-1.70;99.90;;;;;;5052903;28;20483;-68
2022/03/09 00:25:32;;;;;;;15.33;10.93;;;-1.70;99.90;;;;;;5052891;28;20828;-67
2022/03/09 00:27:59;;;;;;;14.40;11.20;;;-1.70;99.90;;;;;;5052840;28;20490;-67
2022/03/09 00:30:26;;;;;;;17.13;10.90;;;-1.60;99.90;;;;;;5052629;28;20551;-67
2022/03/09 00:32:53;;;;;;;13.60;10.70;;;-1.50;99.90;;;;;;5052633;28;20500;-68
2022/03/09 00:35:19;;;;;;;14.03;10.63;;;-1.50;99.90;;;;;;5052529;28;20530;-68
2022/03/09 00:37:48;;;;;;;16.30;11.40;;;-1.50;99.90;;;;;;5052604;28;20530;-68
2022/03/09 00:40:14;;;;;;;16.20;11.73;;;-1.50;99.90;;;;;;5052567;28;20826;-66
2022/03/09 00:42:41;;;;;;;16.20;10.30;;;-1.50;99.90;;;;;;5052310;28;20470;-67
2022/03/09 00:45:10;;;;;;;15.27;11.30;;;-1.50;99.90;;;;;;5051958;28;20487;-67
2022/03/09 00:47:37;;;;;;;16.47;10.47;;;-1.60;99.90;;;;;;5052170;28;20527;-67
2022/03/09 00:50:04;;;;;;;12.97;10.00;;;-1.60;99.90;;;;;;5052210;28;21131;-67
2022/03/09 00:52:31;;;;;;;16.70;10.77;;;-1.70;99.90;;;;;;5052239;28;20902;-67
2022/03/09 00:54:59;;;;;;;14.80;10.47;;;-1.80;99.90;;;;;;5051759;28;20490;-67
2022/03/09 00:57:26;;;;;;;13.70;11.37;;;-1.70;99.90;;;;;;5051129;28;20542;-67
2022/03/09 00:59:53;;;;;;;15.03;10.80;;;-1.70;99.90;;;;;;5052236;28;20479;-67
2022/03/09 01:02:20;;;;;;;15.50;11.07;;;-1.80;99.90;;;;;;5052277;28;20851;-67
2022/03/09 01:04:47;;;;;;;17.87;10.50;;;-1.90;99.90;;;;;;5051885;28;20448;-67
2022/03/09 01:07:14;;;;;;;14.93;10.03;;;-1.90;99.90;;;;;;5052290;28;20448;-67
2022/03/09 01:09:40;;;;;;;14.20;10.80;;;-1.80;99.90;;;;;;5052477;28;20891;-67
2022/03/09 01:12:09;;;;;;;19.60;11.37;;;-1.80;99.90;;;;;;5052083;28;20479;-67
2022/03/09 01:14:36;;;;;;;17.33;11.10;;;-1.70;99.90;;;;;;5051504;28;20576;-67
2022/03/09 01:17:03;;;;;;;18.47;12.43;;;-1.70;99.90;;;;;;5052028;28;20995;-68
2022/03/09 01:19:30;;;;;;;16.10;10.10;;;-1.80;99.90;;;;;;5051604;28;20448;-67
2022/03/09 01:21:57;;;;;;;16.60;11.10;;;-1.90;99.90;;;;;;5051952;28;20472;-67
2022/03/09 01:24:24;;;;;;;21.40;11.50;;;-1.90;99.90;;;;;;5051390;28;20440;-67
2022/03/09 01:26:51;;;;;;;13.70;10.60;;;-1.90;99.90;;;;;;5051559;28;20447;-67
2022/03/09 01:29:19;;;;;;;23.60;10.97;;;-1.90;99.90;;;;;;5051543;28;20502;-67
2022/03/09 01:31:46;;;;;;;13.87;11.07;;;-1.90;99.90;;;;;;5051119;28;20472;-67
2022/03/09 01:34:13;;;;;;;12.63;10.10;;;-1.80;99.90;;;;;;5051056;28;20488;-67
2022/03/09 01:36:40;;;;;;;16.13;9.67;;;-1.90;99.90;;;;;;5051494;28;20548;-67
2022/03/09 01:39:07;;;;;;;14.20;10.00;;;-1.90;99.90;;;;;;5051238;28;20531;-66
2022/03/09 01:41:34;;;;;;;18.90;10.77;;;-1.90;99.90;;;;;;5050753;28;20910;-67
2022/03/09 01:44:08;;;;;;;18.77;9.97;;;-1.90;99.90;;;;;;5051337;28;20446;-67
2022/03/09 01:46:37;;;;;;;28.93;11.43;;;-1.90;99.90;;;;;;5050629;28;20486;-67
2022/03/09 01:49:04;;;;;;;17.13;10.63;;;-1.90;99.90;;;;;;5051224;28;21083;-67
2022/03/09 01:51:33;;;;;;;13.83;10.00;;;-2.00;99.90;;;;;;5051040;28;20498;-67
2022/03/09 01:54:00;;;;;;;18.13;11.20;;;-2.10;99.90;;;;;;5050710;28;20514;-67
2022/03/09 01:56:28;;;;;;;14.50;10.50;;;-1.90;99.90;;;;;;5050666;28;20829;-67
2022/03/09 01:58:55;;;;;;;16.07;11.37;;;-1.90;99.90;;;;;;5050993;28;20535;-66
2022/03/09 02:01:22;;;;;;;15.93;10.70;;;-1.90;99.90;;;;;;5050351;28;20456;-67
2022/03/09 02:03:51;;;;;;;13.23;10.27;;;-2.00;99.90;;;;;;5050436;28;20467;-66
2022/03/09 02:06:18;;;;;;;16.63;10.00;;;-2.10;99.90;;;;;;5050180;28;20531;-67
2022/03/09 02:11:32;;;;;;;16.80;9.90;;;-2.20;99.90;;;;;;5050288;28;20439;-67
2022/03/09 02:13:58;;;;;;;15.80;11.20;;;-2.20;99.90;;;;;;5050361;28;20570;-67
2022/03/09 02:16:25;;;;;;;15.60;11.03;;;-2.30;99.90;;;;;;5050082;28;20451;-66
2022/03/09 02:18:54;;;;;;;15.57;11.40;;;-2.40;99.90;;;;;;5050211;28;20531;-67
2022/03/09 02:21:23;;;;;;;13.77;10.30;;;-2.40;99.90;;;;;;5050212;28;20503;-67
2022/03/09 02:23:55;;;;;;;20.13;12.97;;;-2.40;99.90;;;;;;5050445;28;20440;-67
2022/03/09 02:26:22;;;;;;;16.33;10.43;;;-2.30;99.90;;;;;;5050664;28;20494;-66
2022/03/09 02:28:49;;;;;;;15.77;11.00;;;-2.30;99.90;;;;;;5050725;28;20455;-67
2022/03/09 02:31:16;;;;;;;15.70;11.37;;;-2.30;99.90;;;;;;5050453;28;20572;-67
2022/03/09 02:33:46;;;;;;;14.67;10.20;;;-2.30;99.90;;;;;;5050154;28;20482;-67
2022/03/09 02:36:13;;;;;;;14.87;10.63;;;-2.30;99.90;;;;;;5050772;28;20463;-67
2022/03/09 02:38:39;;;;;;;14.73;11.03;;;-2.40;99.90;;;;;;5050257;28;20450;-67
2022/03/09 02:41:08;;;;;;;16.23;11.10;;;-2.40;99.90;;;;;;5050261;28;20563;-67
2022/03/09 02:43:34;;;;;;;16.53;10.20;;;-2.40;99.90;;;;;;5050550;28;20450;-67
2022/03/09 02:46:01;;;;;;;15.33;9.87;;;-2.30;99.90;;;;;;5049885;28;20527;-67
2022/03/09 02:48:28;;;;;;;14.53;10.20;;;-2.30;99.90;;;;;;5050322;28;20454;-67
2022/03/09 02:50:55;;;;;;;14.20;10.77;;;-2.30;99.90;;;;;;5050385;28;20460;-67
2022/03/09 02:53:23;;;;;;;15.97;10.30;;;-2.30;99.90;;;;;;5050152;28;20521;-67
2022/03/09 02:55:50;;;;;;;13.97;9.70;;;-2.40;99.90;;;;;;5050335;28;20529;-67
2022/03/09 02:58:18;;;;;;;17.37;10.93;;;-2.50;99.90;;;;;;5050403;28;20501;-67
2022/03/09 03:00:45;;;;;;;15.47;11.10;;;-2.60;99.90;;;;;;5050193;28;20878;-67
2022/03/09 03:03:12;;;;;;;17.17;11.50;;;-2.60;99.90;;;;;;5050646;28;20991;-67
2022/03/09 03:05:38;;;;;;;16.83;10.83;;;-2.60;99.90;;;;;;5049811;28;20479;-67
2022/03/09 03:08:05;;;;;;;15.87;11.83;;;-2.70;99.90;;;;;;5050435;28;20448;-67
2022/03/09 03:10:32;;;;;;;18.80;11.10;;;-2.60;99.90;;;;;;5049859;28;20480;-67
2022/03/09 03:12:59;;;;;;;14.30;10.63;;;-2.50;99.90;;;;;;5050140;28;20471;-67
2022/03/09 03:15:27;;;;;;;19.57;12.07;;;-2.60;99.90;;;;;;5049614;28;20490;-67
2022/03/09 03:17:54;;;;;;;14.40;9.80;;;-2.60;99.90;;;;;;5050320;28;20450;-67
2022/03/09 03:20:21;;;;;;;17.10;11.17;;;-2.70;99.90;;;;;;5052774;28;20451;-67
2022/03/09 03:22:48;;;;;;;15.10;9.83;;;-2.60;99.90;;;;;;5053728;28;20546;-67
2022/03/09 03:25:15;;;;;;;17.27;10.83;;;-2.60;99.90;;;;;;5053890;28;20440;-67
2022/03/09 03:27:41;;;;;;;15.83;10.27;;;-2.60;99.90;;;;;;5053669;28;20967;-67
2022/03/09 03:30:09;;;;;;;18.60;11.60;;;-2.70;99.90;;;;;;5053294;28;20546;-67
2022/03/09 03:32:37;;;;;;;15.83;10.73;;;-2.70;99.90;;;;;;5053842;28;20464;-67
2022/03/09 03:35:05;;;;;;;15.43;10.37;;;-2.80;99.90;;;;;;5053066;28;20578;-67
2022/03/09 03:37:32;;;;;;;13.50;9.77;;;-2.70;99.90;;;;;;5053805;28;20444;-67
2022/03/09 03:39:59;;;;;;;15.50;10.63;;;-2.70;99.90;;;;;;5053774;28;20542;-67
2022/03/09 03:42:25;;;;;;;15.73;9.73;;;-2.70;99.90;;;;;;5053192;28;20464;-67
2022/03/09 03:44:52;;;;;;;16.90;10.90;;;-2.70;99.90;;;;;;5052991;28;20443;-67
2022/03/09 03:47:19;;;;;;;16.90;10.47;;;-2.70;99.90;;;;;;5053645;28;20440;-67
2022/03/09 03:49:47;;;;;;;16.13;10.87;;;-2.70;99.90;;;;;;5053330;28;20474;-67
2022/03/09 03:52:14;;;;;;;18.33;10.93;;;-2.70;99.90;;;;;;5053141;28;20470;-67
2022/03/09 03:54:41;;;;;;;14.87;10.60;;;-2.70;99.90;;;;;;5052890;28;20476;-68
2022/03/09 03:57:08;;;;;;;17.30;11.40;;;-2.70;99.90;;;;;;5052984;28;20571;-67
2022/03/09 03:59:35;;;;;;;11.90;9.50;;;-2.70;99.90;;;;;;5053083;28;21015;-67
2022/03/09 04:02:02;;;;;;;12.80;10.90;;;-2.80;99.90;;;;;;5053026;28;20464;-67
2022/03/09 04:04:29;;;;;;;15.30;9.93;;;-2.90;99.90;;;;;;5052903;28;20476;-67
2022/03/09 04:06:57;;;;;;;19.00;11.53;;;-3.00;99.90;;;;;;5053308;28;20535;-67
2022/03/09 04:09:24;;;;;;;16.93;10.73;;;-3.00;99.90;;;;;;5053098;28;20455;-67
2022/03/09 04:11:51;;;;;;;17.90;11.00;;;-3.00;99.90;;;;;;5053053;28;20900;-67
2022/03/09 04:14:22;;;;;;;15.30;10.43;;;-3.00;99.90;;;;;;5052786;28;20584;-66
2022/03/09 04:16:49;;;;;;;13.90;10.00;;;-3.00;99.90;;;;;;5052807;28;20455;-66
2022/03/09 04:19:16;;;;;;;17.70;11.27;;;-3.00;99.90;;;;;;5052656;28;20444;-67
2022/03/09 04:21:42;;;;;;;15.87;10.70;;;-3.10;99.90;;;;;;5052626;28;20499;-67
2022/03/09 04:24:11;;;;;;;18.20;10.93;;;-3.10;99.90;;;;;;5052342;28;20539;-67
2022/03/09 04:26:38;;;;;;;13.63;9.60;;;-3.20;99.90;;;;;;5052967;28;20452;-67
2022/03/09 04:29:04;;;;;;;13.90;9.90;;;-3.20;99.90;;;;;;5052860;28;20448;-66
2022/03/09 04:31:32;;;;;;;17.03;10.23;;;-3.20;99.90;;;;;;5052034;28;20862;-67
2022/03/09 04:33:59;;;;;;;15.70;10.67;;;-3.30;99.90;;;;;;5052091;28;20447;-66
2022/03/09 04:36:26;;;;;;;25.77;12.23;;;-3.40;99.90;;;;;;5051924;28;20444;-66
2022/03/09 04:38:53;;;;;;;19.40;11.43;;;-3.40;99.90;;;;;;5051481;28;20491;-66
2022/03/09 04:41:21;;;;;;;17.20;10.83;;;-3.40;99.90;;;;;;5052034;28;20899;-67
2022/03/09 04:43:48;;;;;;;14.90;10.33;;;-3.40;99.90;;;;;;5052459;28;20460;-67
2022/03/09 04:46:15;;;;;;;15.50;11.13;;;-3.40;99.90;;;;;;5051468;28;20531;-66
2022/03/09 04:48:42;;;;;;;13.37;9.53;;;-3.30;99.90;;;;;;5052978;28;20892;-67
2022/03/09 04:51:09;;;;;;;13.33;9.93;;;-3.40;99.90;;;;;;5053354;28;20464;-67
2022/03/09 04:53:36;;;;;;;15.67;11.17;;;-3.40;99.90;;;;;;5055951;28;20536;-67
2022/03/09 04:56:04;;;;;;;12.17;10.50;;;-3.40;99.90;;;;;;5055769;28;20571;-67
2022/03/09 04:58:32;;;;;;;14.77;10.00;;;-3.50;99.90;;;;;;5056896;28;20518;-66
2022/03/09 05:00:59;;;;;;;18.03;10.87;;;-3.50;99.90;;;;;;5055611;28;20472;-68
2022/03/09 05:03:26;;;;;;;22.80;11.70;;;-3.50;99.90;;;;;;5054052;28;20838;-67
2022/03/09 05:05:53;;;;;;;14.90;11.30;;;-3.40;99.90;;;;;;5053848;28;20470;-66
2022/03/09 05:08:19;;;;;;;15.33;11.47;;;-3.40;99.90;;;;;;5052866;28;20448;-66
2022/03/09 05:10:46;;;;;;;17.50;12.07;;;-3.50;99.90;;;;;;5052387;28;20545;-66
2022/03/09 05:13:14;;;;;;;25.30;13.00;;;-3.50;99.90;;;;;;5052244;28;20443;-67
2022/03/09 05:15:42;;;;;;;23.30;12.03;;;-3.50;99.90;;;;;;5051420;28;20488;-67
2022/03/09 05:18:09;;;;;;;19.60;11.10;;;-3.60;99.90;;;;;;5051384;28;20458;-67
2022/03/09 05:20:36;;;;;;;16.10;11.70;;;-3.60;99.90;;;;;;5051265;28;20833;-66
2022/03/09 05:23:02;;;;;;;20.00;13.20;;;-3.60;99.90;;;;;;5051424;28;20452;-67
2022/03/09 05:25:30;;;;;;;21.20;10.80;;;-3.50;99.90;;;;;;5051352;28;20527;-67
2022/03/09 05:27:56;;;;;;;16.47;11.17;;;-3.60;99.90;;;;;;5051679;28;20451;-67
2022/03/09 05:30:23;;;;;;;18.10;11.40;;;-3.50;99.90;;;;;;5051446;28;20464;-67
2022/03/09 05:32:51;;;;;;;17.63;11.03;;;-3.60;99.90;;;;;;5051364;28;20471;-66
2022/03/09 05:35:18;;;;;;;18.67;12.57;;;-3.70;99.90;;;;;;5050963;28;20490;-69
2022/03/09 05:37:45;;;;;;;17.00;11.70;;;-3.70;99.90;;;;;;5051152;28;20878;-68
2022/03/09 05:40:14;;;;;;;14.57;10.33;;;-3.70;99.90;;;;;;5051072;28;20856;-66
2022/03/09 05:42:42;;;;;;;14.80;9.53;;;-3.70;99.90;;;;;;5050810;28;20464;-69
2022/03/09 05:45:10;;;;;;;19.13;11.10;;;-3.60;99.90;;;;;;5050959;28;20867;-66
2022/03/09 05:47:37;;;;;;;15.10;9.73;;;-3.60;99.90;;;;;;5051465;28;20455;-66
2022/03/09 05:50:07;;;;;;;17.20;10.43;;;-3.50;99.90;;;;;;5050707;28;20454;-65
2022/03/09 05:52:34;;;;;;;19.77;11.50;;;-3.40;99.90;;;;;;5047801;28;20475;-67
2022/03/09 05:55:00;;;;;;;14.10;9.37;;;-3.30;99.90;;;;;;5044585;28;20627;-66
2022/03/09 05:57:28;;;;;;;17.67;10.33;;;-3.20;99.90;;;;;;5041956;28;20457;-67
2022/03/09 05:59:55;;;;;;;12.70;9.10;;;-3.20;99.90;;;;;;5042822;28;20459;-66
2022/03/09 06:02:21;;;;;;;19.00;11.40;;;-3.20;99.90;;;;;;5037803;28;20488;-66
2022/03/09 06:04:48;;;;;;;18.00;11.30;;;-3.10;99.90;;;;;;5038450;28;20432;-66
2022/03/09 06:07:16;;;;;;;16.20;10.27;;;-3.10;99.90;;;;;;5041646;28;20433;-67
2022/03/09 06:09:44;;;;;;;14.10;10.30;;;-3.10;99.90;;;;;;5030652;28;20444;-66
2022/03/09 06:12:10;;;;;;;15.30;11.27;;;-3.20;99.90;;;;;;5035418;28;20475;-66
2022/03/09 06:14:37;;;;;;;15.60;10.10;;;-3.20;99.90;;;;;;5034282;28;20445;-66
2022/03/09 06:17:04;;;;;;;14.80;10.13;;;-3.10;99.90;;;;;;5042328;28;20441;-66
2022/03/09 06:19:31;;;;;;;19.03;10.20;;;-3.10;99.90;;;;;;5037025;28;20493;-67
2022/03/09 06:21:58;;;;;;;14.03;9.70;;;-3.10;99.90;;;;;;5030920;28;20479;-67
2022/03/09 06:24:26;;;;;;;11.77;8.83;;;-3.00;99.90;;;;;;5028314;28;20441;-66
2022/03/09 06:26:54;;;;;;;15.83;10.53;;;-2.80;99.90;;;;;;5029584;28;20525;-67
2022/03/09 06:29:21;;;;;;;16.60;10.97;;;-2.60;99.90;;;;;;5029438;28;20491;-67
2022/03/09 06:31:48;;;;;;;12.60;9.83;;;-2.60;99.90;;;;;;5029419;28;20475;-66
2022/03/09 06:34:14;;;;;;;14.60;9.07;;;-2.60;99.90;;;;;;5029898;28;20498;-66
2022/03/09 06:36:44;;;;;;;17.27;11.10;;;-2.60;99.90;;;;;;5030111;28;20600;-67
2022/03/09 06:39:12;;;;;;;17.90;12.07;;;-2.50;99.90;;;;;;5030386;28;20437;-66
2022/03/09 06:41:41;;;;;;;20.00;12.80;;;-2.50;99.90;;;;;;5029940;28;20452;-66
2022/03/09 06:44:08;;;;;;;16.57;11.50;;;-2.50;99.90;;;;;;5029547;28;20512;-66
2022/03/09 06:46:35;;;;;;;19.50;11.50;;;-2.50;99.90;;;;;;5029700;28;20439;-67
2022/03/09 06:49:02;;;;;;;16.07;10.67;;;-2.40;99.90;;;;;;5029851;28;20437;-67
2022/03/09 06:51:29;;;;;;;16.93;11.00;;;-2.30;99.90;;;;;;5029826;28;20901;-66
2022/03/09 06:53:56;;;;;;;16.13;10.73;;;-2.20;99.90;;;;;;5030191;28;20445;-67
2022/03/09 06:56:22;;;;;;;14.87;9.87;;;-2.10;99.90;;;;;;5033512;28;20480;-66
2022/03/09 06:58:51;;;;;;;13.53;10.47;;;-2.10;99.90;;;;;;5033643;28;20535;-67
2022/03/09 07:01:17;;;;;;;13.87;9.20;;;-2.00;99.90;;;;;;5033458;28;20468;-66
2022/03/09 07:03:44;;;;;;;13.63;10.50;;;-1.90;99.90;;;;;;5033596;28;20433;-67
2022/03/09 07:06:13;;;;;;;16.67;11.03;;;-1.70;99.90;;;;;;5033405;28;20444;-66
2022/03/09 07:08:39;;;;;;;17.47;11.73;;;-1.70;99.90;;;;;;5033620;28;20445;-66
2022/03/09 07:11:06;;;;;;;15.63;11.20;;;-1.60;99.90;;;;;;5033238;28;21011;-66
2022/03/09 07:13:34;;;;;;;21.90;10.73;;;-1.40;99.90;;;;;;5033458;28;20437;-67
2022/03/09 07:16:02;;;;;;;17.13;10.17;;;-1.30;99.90;;;;;;5033250;28;20576;-66
2022/03/09 07:18:29;;;;;;;16.97;11.97;;;-1.20;99.90;;;;;;5033506;28;20528;-66
2022/03/09 07:20:55;;;;;;;14.47;10.20;;;-1.00;99.90;;;;;;5033445;28;20559;-66
2022/03/09 07:23:22;;;;;;;13.90;10.70;;;-0.90;99.90;;;;;;5033601;28;20798;-66
2022/03/09 07:25:49;;;;;;;13.03;10.40;;;-0.70;99.90;;;;;;5033087;28;20523;-67
2022/03/09 07:28:16;;;;;;;21.47;12.00;;;-0.50;99.90;;;;;;5033328;28;20433;-67
2022/03/09 07:30:43;;;;;;;13.67;10.07;;;-0.40;99.90;;;;;;5033247;28;20535;-67
2022/03/09 07:33:11;;;;;;;14.63;10.07;;;-0.20;99.90;;;;;;5033570;28;20436;-67
2022/03/09 07:35:38;;;;;;;12.10;10.00;;;-0.10;99.90;;;;;;5033223;28;20563;-67
2022/03/09 07:38:06;;;;;;;14.57;10.40;;;0.10;99.90;;;;;;5033436;28;20440;-67
2022/03/09 07:40:33;;;;;;;14.57;10.90;;;0.20;99.90;;;;;;5033150;28;20448;-67
2022/03/09 07:42:59;;;;;;;14.67;10.80;;;0.30;99.90;;;;;;5033108;28;20475;-67
2022/03/09 07:45:26;;;;;;;12.23;9.53;;;0.40;99.90;;;;;;5032802;28;20607;-67
2022/03/09 07:47:53;;;;;;;13.67;9.53;;;0.50;99.90;;;;;;5033108;28;20463;-67
2022/03/09 07:50:22;;;;;;;13.97;10.27;;;0.60;99.90;;;;;;5033158;28;20595;-67
2022/03/09 07:52:49;;;;;;;13.33;11.00;;;0.80;99.90;;;;;;5033107;28;20558;-67
2022/03/09 07:55:16;;;;;;;15.50;11.27;;;1.00;99.90;;;;;;5032781;28;20453;-67
2022/03/09 07:57:43;;;;;;;14.07;11.23;;;1.10;99.90;;;;;;5032892;28;20448;-67
2022/03/09 08:00:11;;;;;;;14.97;10.93;;;1.20;99.90;;;;;;5032859;28;20875;-67
2022/03/09 08:02:38;;;;;;;13.30;10.53;;;1.40;99.90;;;;;;5032475;28;21021;-67
2022/03/09 08:05:05;;;;;;;15.90;10.60;;;1.50;99.90;;;;;;5031810;28;20543;-67
2022/03/09 08:07:34;;;;;;;18.37;11.00;;;1.60;99.90;;;;;;5032680;28;20536;-67
2022/03/09 08:10:01;;;;;;;16.13;11.20;;;1.80;99.90;;;;;;5032355;28;20448;-67
2022/03/09 08:12:28;;;;;;;16.93;10.10;;;1.80;99.90;;;;;;5032314;28;20994;-67
2022/03/09 08:14:54;;;;;;;15.90;9.80;;;2.00;99.90;;;;;;5031924;28;20464;-67
2022/03/09 08:17:22;;;;;;;18.57;11.43;;;2.20;99.90;;;;;;5032368;28;20691;-67
2022/03/09 08:19:49;;;;;;;14.90;10.83;;;2.20;99.90;;;;;;5033089;28;20471;-67
2022/03/09 08:22:15;;;;;;;14.57;11.20;;;2.40;99.90;;;;;;5032402;28;20507;-67
2022/03/09 08:24:44;;;;;;;20.70;12.17;;;2.50;99.90;;;;;;5032084;28;20540;-67
2022/03/09 08:27:11;;;;;;;18.27;11.70;;;2.80;99.90;;;;;;5032156;28;20491;-67
2022/03/09 08:29:37;;;;;;;17.53;11.10;;;2.90;99.90;;;;;;5032342;28;20796;-67
2022/03/09 08:32:05;;;;;;;15.13;11.97;;;3.10;99.90;;;;;;5031997;28;20572;-67
2022/03/09 08:34:32;;;;;;;12.43;10.20;;;3.20;99.90;;;;;;5031877;28;20449;-67
2022/03/09 08:36:59;;;;;;;15.40;12.03;;;3.50;99.90;;;;;;5031655;28;20599;-67
2022/03/09 08:39:26;;;;;;;13.90;11.27;;;3.70;99.70;;;;;;5032014;28;20473;-67
2022/03/09 08:41:54;;;;;;;15.53;11.07;;;4.10;99.50;;;;;;5031837;28;20560;-67
2022/03/09 08:44:21;;;;;;;14.83;10.73;;;4.40;98.60;;;;;;5031575;28;20510;-67
2022/03/09 08:46:48;;;;;;;14.10;10.17;;;4.60;98.20;;;;;;5031741;28;20532;-67
2022/03/09 08:49:15;;;;;;;14.63;10.97;;;4.70;96.50;;;;;;5031761;28;20503;-67
2022/03/09 08:51:42;;;;;;;13.13;10.30;;;4.90;95.50;;;;;;5031890;28;20465;-67
2022/03/09 08:54:09;;;;;;;16.60;12.17;;;5.10;95.20;;;;;;5031281;28;20472;-66
2022/03/09 08:56:36;;;;;;;11.80;9.53;;;5.20;94.60;;;;;;5031523;28;20568;-67
2022/03/09 08:59:04;;;;;;;15.30;11.03;;;5.20;94.60;;;;;;5031742;28;20528;-67
2022/03/09 09:01:31;;;;;;;15.13;11.70;;;5.50;94.00;;;;;;5031371;28;20547;-67
2022/03/09 09:03:59;;;;;;;18.77;12.60;;;5.70;94.30;;;;;;5031391;28;20451;-67
2022/03/09 09:06:26;;;;;;;16.87;12.30;;;6.00;93.30;;;;;;5031360;28;20485;-67
2022/03/09 09:08:53;;;;;;;16.43;11.37;;;6.30;93.30;;;;;;5031574;28;20872;-67
2022/03/09 09:11:20;;;;;;;16.57;12.70;;;6.60;92.60;;;;;;5031462;28;20579;-67
2022/03/09 09:13:47;;;;;;;17.57;12.60;;;7.00;91.90;;;;;;5030942;28;21011;-67
2022/03/09 09:16:16;;;;;;;15.07;11.70;;;7.70;90.60;;;;;;5030437;28;20476;-67
2022/03/09 09:18:43;;;;;;;14.70;11.20;;;8.20;89.00;;;;;;5030728;28;20473;-67
2022/03/09 09:21:10;;;;;;;14.63;11.27;;;8.60;86.80;;;;;;5031192;28;20836;-68
2022/03/09 09:23:38;;;;;;;17.10;12.10;;;8.80;85.00;;;;;;5031098;28;20449;-67
2022/03/09 09:26:05;;;;;;;14.00;11.60;;;9.10;82.20;;;;;;5030637;28;20511;-67
2022/03/09 09:28:32;;;;;;;14.43;11.07;;;9.20;81.20;;;;;;5031011;28;20887;-67
2022/03/09 09:30:59;;;;;;;13.80;11.87;;;9.10;80.50;;;;;;5030604;28;20543;-67
2022/03/09 09:33:28;;;;;;;15.07;11.13;;;9.20;82.00;;;;;;5030916;28;20437;-68
2022/03/09 09:35:54;;;;;;;17.43;11.07;;;9.50;79.50;;;;;;5030401;28;20452;-67
2022/03/09 09:38:21;;;;;;;16.50;10.93;;;9.80;78.10;;;;;;5030457;28;20477;-67
2022/03/09 09:40:51;;;;;;;26.27;13.33;;;10.20;75.00;;;;;;5030721;28;20465;-67
2022/03/09 09:43:18;;;;;;;17.23;12.03;;;10.40;75.20;;;;;;5030459;28;20903;-68
2022/03/09 09:45:45;;;;;;;20.03;12.10;;;10.60;74.90;;;;;;5030183;28;20473;-68
2022/03/09 09:48:13;;;;;;;15.37;12.50;;;10.90;73.20;;;;;;5030583;28;20519;-67
2022/03/09 09:50:43;;;;;;;14.60;10.90;;;11.30;72.70;;;;;;5030478;28;20524;-68
2022/03/09 09:53:12;;;;;;;14.40;11.20;;;11.70;70.90;;;;;;5030511;28;20503;-67
2022/03/09 09:55:41;;;;;;;21.03;12.60;;;12.00;70.60;;;;;;5030260;28;20481;-67
2022/03/09 09:58:08;;;;;;;16.10;11.10;;;12.20;67.60;;;;;;5030263;28;20477;-68
2022/03/09 10:00:35;;;;;;;16.57;11.50;;;12.10;67.20;;;;;;5030629;28;20871;-67
2022/03/09 10:03:03;;;;;;;14.90;11.60;;;12.30;65.80;;;;;;5030542;28;20449;-67
2022/03/09 10:05:31;;;;;;;17.27;12.93;;;12.70;63.90;;;;;;5029920;28;20449;-67
2022/03/09 10:08:18;;;;;;;13.00;11.60;;;12.40;61.00;;;;;;5030518;28;20441;-67
2022/03/09 10:10:55;;;;;;;13.37;11.43;;;12.20;63.30;;;;;;5030697;28;20813;-67
2022/03/09 10:13:26;;;;;;;16.43;11.73;;;12.30;60.50;;;;;;5030699;28;20865;-68
2022/03/09 10:16:12;;;;;;;13.40;11.50;;;12.30;60.10;;;;;;5029783;28;20977;-67
2022/03/09 10:18:40;;;;;;;15.57;12.60;;;12.70;60.80;;;;;;5030375;28;20457;-67
2022/03/09 10:21:12;;;;;;;14.40;11.97;;;13.30;59.70;;;;;;5030058;28;20473;-67
2022/03/09 10:23:58;;;;;;;13.10;11.63;;;13.90;58.50;;;;;;5030218;28;20536;-67
2022/03/09 10:26:27;;;;;;;14.20;12.70;;;14.10;60.50;;;;;;5029915;28;20532;-67
2022/03/09 10:28:58;;;;;;;15.73;12.33;;;14.50;58.40;;;;;;5029872;28;20460;-68
2022/03/09 10:31:36;;;;;;;13.20;11.10;;;14.70;57.10;;;;;;5030478;28;20469;-68
2022/03/09 10:34:08;;;;;;;62.03;18.00;;;14.70;56.60;;;;;;5033732;28;20959;-67
2022/03/09 10:36:35;;;;;;;61.07;18.70;;;14.90;55.40;;;;;;5034031;28;20542;-68
2022/03/09 10:39:15;;;;;;;17.03;12.67;;;15.10;54.90;;;;;;5034770;28;20468;-67
2022/03/09 10:41:42;;;;;;;33.37;14.23;;;15.50;55.10;;;;;;5031999;28;20461;-68
2022/03/09 10:44:09;;;;;;;24.47;14.80;;;15.90;52.80;;;;;;5029770;28;20541;-68
2022/03/09 10:46:44;;;;;;;17.43;12.53;;;16.20;53.00;;;;;;5030196;28;20520;-68
2022/03/09 10:49:12;;;;;;;14.77;11.10;;;16.30;52.90;;;;;;5029957;28;20976;-68
2022/03/09 10:51:41;;;;;;;15.03;12.60;;;16.70;50.30;;;;;;5030025;28;20481;-68
2022/03/09 10:54:11;;;;;;;15.23;12.40;;;16.90;49.40;;;;;;5029715;28;21037;-68
2022/03/09 10:56:40;;;;;;;13.83;11.60;;;17.00;49.20;;;;;;5029892;28;20480;-68
2022/03/09 10:59:12;;;;;;;16.53;14.10;;;16.60;49.00;;;;;;5029847;28;20518;-68
2022/03/09 11:01:39;;;;;;;23.27;14.10;;;16.40;48.60;;;;;;5029714;28;20563;-68
2022/03/09 11:04:17;;;;;;;16.83;15.13;;;16.00;49.40;;;;;;5029749;28;21030;-68
2022/03/09 11:06:47;;;;;;;16.40;13.83;;;16.50;48.10;;;;;;5029868;28;20796;-68
2022/03/09 11:09:16;;;;;;;14.30;12.80;;;17.30;48.60;;;;;;5029413;28;20912;-68
2022/03/09 11:11:46;;;;;;;15.40;12.60;;;17.60;47.90;;;;;;5029642;28;20479;-68
2022/03/09 11:14:14;;;;;;;15.67;12.77;;;18.00;47.80;;;;;;5029305;28;20461;-68
2022/03/09 11:16:42;;;;;;;15.07;13.57;;;17.30;46.00;;;;;;5029496;28;20850;-67
2022/03/09 11:19:10;;;;;;;18.20;13.60;;;16.70;48.40;;;;;;5029969;28;20453;-68
2022/03/09 11:21:37;;;;;;;15.83;13.00;;;17.30;48.30;;;;;;5029795;28;20469;-68
2022/03/09 11:24:09;;;;;;;15.77;14.07;;;18.10;46.80;;;;;;5029352;28;20437;-68
2022/03/09 11:26:40;;;;;;;16.50;13.90;;;18.90;46.50;;;;;;5029648;28;21006;-68
2022/03/09 11:29:12;;;;;;;18.10;13.80;;;19.60;45.70;;;;;;5029465;28;20576;-68
2022/03/09 11:31:50;;;;;;;17.37;15.10;;;19.50;44.00;;;;;;5029378;28;20488;-68
2022/03/09 11:34:41;;;;;;;19.43;15.07;;;19.40;43.70;;;;;;5028855;28;20445;-68
2022/03/09 11:37:10;;;;;;;16.60;14.67;;;19.50;43.20;;;;;;5028928;28;21013;-67
2022/03/09 11:39:38;;;;;;;16.83;14.47;;;19.80;44.30;;;;;;5029163;28;20457;-70
2022/03/09 11:42:34;;;;;;;17.97;15.50;;;20.40;42.30;;;;;;5033117;28;20559;-69
2022/03/09 11:45:39;;;;;;;14.30;12.80;;;20.80;41.30;;;;;;5031681;28;20451;-68
2022/03/09 11:48:11;;;;;;;15.10;13.50;;;21.00;40.20;;;;;;5031425;28;20518;-68
2022/03/09 11:51:10;;;;;;;18.80;14.57;;;20.90;41.10;;;;;;5040060;28;20460;-68
2022/03/09 11:53:43;;;;;;;16.10;14.43;;;19.60;41.80;;;;;;5034432;28;20486;-67
2022/03/09 11:56:36;;;;;;;16.90;14.17;;;19.90;41.90;;;;;;5032510;28;20459;-67
2022/03/09 11:59:27;;;;;;;15.33;13.70;;;18.80;41.00;;;;;;5019076;28;20437;-67
2022/03/09 12:02:17;;;;;;;15.53;13.80;;;17.70;43.60;;;;;;5032769;28;20464;-67
2022/03/09 12:04:53;;;;;;;15.07;12.60;;;18.20;41.50;;;;;;5032615;28;20459;-68
2022/03/09 12:07:56;;;;;;;15.20;13.37;;;18.60;40.70;;;;;;5032661;28;20455;-68
2022/03/09 12:10:41;;;;;;;15.47;13.80;;;19.40;41.70;;;;;;5032401;28;20437;-67
2022/03/09 12:13:15;;;;;;;14.77;12.73;;;20.70;41.10;;;;;;5032632;28;20514;-68
2022/03/09 12:16:18;;;;;;;13.43;11.93;;;20.40;37.20;;;;;;5032347;28;20453;-68
2022/03/09 12:18:51;;;;;;;14.33;12.80;;;20.90;38.60;;;;;;5032144;28;20846;-67
2022/03/09 12:21:42;;;;;;;15.90;14.10;;;21.50;37.60;;;;;;5032423;28;20465;-68
2022/03/09 12:24:33;;;;;;;35.97;15.77;;;22.40;38.10;;;;;;5031742;28;21019;-68
2022/03/09 12:27:00;;;;;;;15.10;13.37;;;23.40;36.30;;;;;;5031998;28;20927;-68
2022/03/09 12:29:45;;;;;;;28.43;15.60;;;23.80;37.20;;;;;;5032306;28;20858;-68
2022/03/09 12:32:14;;;;;;;20.03;12.60;;;24.00;35.80;;;;;;5032201;28;20746;-68
2022/03/09 12:34:44;;;;;;;16.40;14.40;;;24.50;35.40;;;;;;5031463;28;21024;-68
2022/03/09 12:37:14;;;;;;;17.80;14.20;;;24.90;35.50;;;;;;5031851;28;20567;-68
2022/03/09 12:39:48;;;;;;;13.53;12.17;;;24.90;33.40;;;;;;5031606;28;20445;-67
2022/03/09 12:42:18;;;;;;;14.67;13.17;;;25.10;31.30;;;;;;5031949;28;20480;-68